HAZ766 NZAA-ZSPD
Flight info
| Callsign | HAZ766 |
|---|---|
| Flight time | N/A |
| Altitude | 34000 |
| Route | DUGAN A597 LEKAX/N0497F360 A597 KAKOP/N0493F380 A597 UNZ G339 SHAWS/N0486F400 G339 AGIKA Z41 POTET Y592 ONIKU A593 LAMEN/K0904F400 A593 DUMET DUM92A |
| Aircraft | A359/H-SDE2E3GHIJ3J4J5LM1ORWXY/LB1D1 |
Departure
| Time | N/A |
|---|---|
| Airport | Auckland International Airport (NZAA) |
Arrival
| Time | 2026-05-08 04:09 |
|---|---|
| Airport | Shanghai Pudong International Airport (ZSPD) |
| Time | Latitude | Longitude | Altitude | Speed | Heading |
|---|---|---|---|---|---|
| 2026-05-08 03:31 | 31.99562 | 125.73640 | 29748 ft | 525 kts | 258° |
| 2026-05-08 03:32 | 31.96785 | 125.61156 | 29746 ft | 525 kts | 258° |
| 2026-05-08 03:32 | 31.94924 | 125.52829 | 29748 ft | 526 kts | 258° |
| 2026-05-08 03:33 | 31.93062 | 125.44510 | 29751 ft | 525 kts | 258° |
| 2026-05-08 03:33 | 31.91195 | 125.36193 | 29738 ft | 526 kts | 258° |
| 2026-05-08 03:34 | 31.89326 | 125.27889 | 29739 ft | 526 kts | 258° |
| 2026-05-08 03:34 | 31.87447 | 125.19572 | 29753 ft | 526 kts | 258° |
| 2026-05-08 03:35 | 31.85564 | 125.11264 | 29736 ft | 526 kts | 258° |
| 2026-05-08 03:36 | 31.82016 | 124.95547 | 29746 ft | 525 kts | 258° |
| 2026-05-08 03:36 | 31.80218 | 124.87223 | 29751 ft | 525 kts | 258° |
| 2026-05-08 03:37 | 31.78426 | 124.78901 | 29745 ft | 525 kts | 258° |
| 2026-05-08 03:37 | 31.76621 | 124.70583 | 29751 ft | 525 kts | 258° |
| 2026-05-08 03:38 | 31.74805 | 124.62271 | 29749 ft | 525 kts | 258° |
| 2026-05-08 03:38 | 31.72983 | 124.53963 | 29739 ft | 525 kts | 258° |
| 2026-05-08 03:39 | 31.71154 | 124.45651 | 29746 ft | 525 kts | 258° |
| 2026-05-08 03:39 | 31.69321 | 124.37349 | 29749 ft | 525 kts | 258° |
| 2026-05-08 03:40 | 31.67482 | 124.29048 | 29744 ft | 525 kts | 258° |
| 2026-05-08 03:40 | 31.65638 | 124.20749 | 29752 ft | 525 kts | 258° |
| 2026-05-08 03:41 | 31.63788 | 124.12451 | 29751 ft | 525 kts | 258° |
| 2026-05-08 03:41 | 31.61933 | 124.04158 | 29750 ft | 525 kts | 258° |
| 2026-05-08 03:42 | 31.60088 | 123.95867 | 29737 ft | 525 kts | 258° |
| 2026-05-08 03:42 | 31.58285 | 123.87615 | 29746 ft | 525 kts | 258° |
| 2026-05-08 03:43 | 31.56475 | 123.79322 | 29749 ft | 525 kts | 258° |
| 2026-05-08 03:43 | 31.54655 | 123.71031 | 29748 ft | 525 kts | 258° |
| 2026-05-08 03:44 | 31.52824 | 123.62734 | 29736 ft | 525 kts | 258° |
| 2026-05-08 03:44 | 31.50988 | 123.54447 | 29749 ft | 525 kts | 258° |
| 2026-05-08 03:45 | 31.49239 | 123.46145 | 29446 ft | 524 kts | 260° |
| 2026-05-08 03:45 | 31.48457 | 123.41979 | 28992 ft | 523 kts | 258° |
| 2026-05-08 03:45 | 31.47710 | 123.37983 | 28434 ft | 480 kts | 258° |
| 2026-05-08 03:45 | 31.47008 | 123.34270 | 28434 ft | 458 kts | 258° |
| 2026-05-08 03:46 | 31.46328 | 123.30685 | 28027 ft | 448 kts | 258° |
| 2026-05-08 03:46 | 31.45654 | 123.27137 | 27403 ft | 442 kts | 258° |
| 2026-05-08 03:46 | 31.44989 | 123.23649 | 26823 ft | 436 kts | 258° |
| 2026-05-08 03:46 | 31.44333 | 123.20212 | 26266 ft | 430 kts | 258° |
| 2026-05-08 03:47 | 31.43682 | 123.16815 | 25720 ft | 424 kts | 258° |
| 2026-05-08 03:47 | 31.43040 | 123.13465 | 25177 ft | 419 kts | 258° |
| 2026-05-08 03:47 | 31.42406 | 123.10164 | 24647 ft | 413 kts | 258° |
| 2026-05-08 03:47 | 31.41778 | 123.06900 | 24117 ft | 408 kts | 258° |
| 2026-05-08 03:48 | 31.41158 | 123.03683 | 23564 ft | 403 kts | 258° |
| 2026-05-08 03:48 | 31.40546 | 123.00508 | 22992 ft | 396 kts | 258° |
| 2026-05-08 03:48 | 31.39943 | 122.97391 | 22485 ft | 390 kts | 258° |
| 2026-05-08 03:48 | 31.39349 | 122.94322 | 21960 ft | 383 kts | 258° |
| 2026-05-08 03:49 | 31.38765 | 122.91303 | 21477 ft | 378 kts | 258° |
| 2026-05-08 03:49 | 31.38187 | 122.88323 | 20976 ft | 374 kts | 258° |
| 2026-05-08 03:49 | 31.37613 | 122.85367 | 20481 ft | 373 kts | 258° |
| 2026-05-08 03:49 | 31.37037 | 122.82410 | 19970 ft | 372 kts | 258° |
| 2026-05-08 03:50 | 31.36293 | 122.79523 | 19480 ft | 372 kts | 250° |
| 2026-05-08 03:50 | 31.35030 | 122.76870 | 18966 ft | 375 kts | 237° |
| 2026-05-08 03:50 | 31.33236 | 122.74642 | 18453 ft | 379 kts | 226° |
| 2026-05-08 03:50 | 31.31225 | 122.72652 | 17844 ft | 378 kts | 224° |
| 2026-05-08 03:51 | 31.29192 | 122.70709 | 17316 ft | 376 kts | 223° |
| 2026-05-08 03:51 | 31.27171 | 122.68771 | 16771 ft | 375 kts | 224° |
| 2026-05-08 03:51 | 31.25157 | 122.66829 | 16239 ft | 375 kts | 224° |
| 2026-05-08 03:51 | 31.23155 | 122.64891 | 15703 ft | 374 kts | 223° |
| 2026-05-08 03:52 | 31.21154 | 122.62949 | 15155 ft | 373 kts | 223° |
| 2026-05-08 03:52 | 31.19159 | 122.61013 | 14611 ft | 373 kts | 223° |
| 2026-05-08 03:52 | 31.17171 | 122.59083 | 14059 ft | 373 kts | 223° |
| 2026-05-08 03:52 | 31.15170 | 122.57142 | 13447 ft | 373 kts | 223° |
| 2026-05-08 03:53 | 31.13177 | 122.55207 | 12898 ft | 372 kts | 223° |
| 2026-05-08 03:53 | 31.11191 | 122.53280 | 12350 ft | 370 kts | 223° |
| 2026-05-08 03:53 | 31.09271 | 122.51421 | 12182 ft | 356 kts | 223° |
| 2026-05-08 03:53 | 31.07405 | 122.49618 | 12011 ft | 342 kts | 223° |
| 2026-05-08 03:54 | 31.05607 | 122.47880 | 11802 ft | 331 kts | 223° |
| 2026-05-08 03:54 | 31.03866 | 122.46196 | 11642 ft | 318 kts | 223° |
| 2026-05-08 03:54 | 31.02192 | 122.44577 | 11492 ft | 307 kts | 223° |
| 2026-05-08 03:54 | 31.00593 | 122.43004 | 11349 ft | 295 kts | 226° |
| 2026-05-08 03:55 | 30.99283 | 122.41251 | 11226 ft | 281 kts | 236° |
| 2026-05-08 03:55 | 30.98186 | 122.39421 | 11090 ft | 270 kts | 239° |
| 2026-05-08 03:55 | 30.97161 | 122.37638 | 10948 ft | 260 kts | 239° |
| 2026-05-08 03:55 | 30.96165 | 122.35900 | 10717 ft | 256 kts | 239° |
| 2026-05-08 03:56 | 30.95183 | 122.34185 | 10486 ft | 252 kts | 239° |
| 2026-05-08 03:56 | 30.94221 | 122.32493 | 10236 ft | 249 kts | 240° |
| 2026-05-08 03:56 | 30.93273 | 122.30822 | 9976 ft | 246 kts | 239° |
| 2026-05-08 03:56 | 30.92304 | 122.29126 | 9828 ft | 260 kts | 239° |
| 2026-05-08 03:57 | 30.91283 | 122.27357 | 9746 ft | 264 kts | 239° |
| 2026-05-08 03:57 | 30.90252 | 122.25588 | 9326 ft | 265 kts | 238° |
| 2026-05-08 03:57 | 30.89217 | 122.23811 | 8972 ft | 265 kts | 239° |
| 2026-05-08 03:57 | 30.88186 | 122.22036 | 8701 ft | 265 kts | 238° |
| 2026-05-08 03:58 | 30.87155 | 122.20262 | 8448 ft | 265 kts | 239° |
| 2026-05-08 03:58 | 30.86135 | 122.18479 | 8186 ft | 264 kts | 240° |
| 2026-05-08 03:58 | 30.85117 | 122.16701 | 7928 ft | 264 kts | 239° |
| 2026-05-08 03:58 | 30.84094 | 122.14924 | 7671 ft | 264 kts | 239° |
| 2026-05-08 03:59 | 30.83065 | 122.13148 | 7419 ft | 264 kts | 239° |
| 2026-05-08 03:59 | 30.82039 | 122.11379 | 7152 ft | 264 kts | 239° |
| 2026-05-08 03:59 | 30.81023 | 122.09631 | 6936 ft | 262 kts | 239° |
| 2026-05-08 03:59 | 30.80092 | 122.07857 | 6753 ft | 253 kts | 247° |
| 2026-05-08 04:00 | 30.79451 | 122.05973 | 6518 ft | 250 kts | 253° |
| 2026-05-08 04:00 | 30.78905 | 122.04060 | 6275 ft | 249 kts | 255° |
| 2026-05-08 04:00 | 30.78378 | 122.02134 | 6039 ft | 250 kts | 256° |
| 2026-05-08 04:00 | 30.77861 | 122.00208 | 5810 ft | 248 kts | 256° |
| 2026-05-08 04:01 | 30.77480 | 121.98307 | 5676 ft | 235 kts | 271° |
| 2026-05-08 04:01 | 30.77886 | 121.96585 | 5524 ft | 215 kts | 309° |
| 2026-05-08 04:01 | 30.79087 | 121.95539 | 5384 ft | 223 kts | 338° |
| 2026-05-08 04:01 | 30.80535 | 121.94908 | 5325 ft | 218 kts | 343° |
| 2026-05-08 04:02 | 30.81946 | 121.94365 | 5219 ft | 209 kts | 344° |
| 2026-05-08 04:02 | 30.83301 | 121.93845 | 5084 ft | 201 kts | 345° |
| 2026-05-08 04:02 | 30.84619 | 121.93350 | 4877 ft | 197 kts | 345° |
| 2026-05-08 04:02 | 30.85911 | 121.92875 | 4766 ft | 191 kts | 346° |
| 2026-05-08 04:03 | 30.87157 | 121.92424 | 4640 ft | 184 kts | 346° |
| 2026-05-08 04:03 | 30.89590 | 121.91546 | 4472 ft | 183 kts | 346° |
| 2026-05-08 04:03 | 30.90802 | 121.91100 | 4361 ft | 182 kts | 346° |
| 2026-05-08 04:04 | 30.92030 | 121.90660 | 4297 ft | 186 kts | 347° |
| 2026-05-08 04:04 | 30.93267 | 121.90219 | 4131 ft | 188 kts | 346° |
| 2026-05-08 04:04 | 30.94523 | 121.89735 | 3851 ft | 196 kts | 344° |
| 2026-05-08 04:04 | 30.95812 | 121.89230 | 3572 ft | 195 kts | 344° |
| 2026-05-08 04:05 | 30.97117 | 121.88741 | 3265 ft | 193 kts | 346° |
| 2026-05-08 04:05 | 30.98364 | 121.88283 | 2989 ft | 186 kts | 346° |
| 2026-05-08 04:05 | 30.99571 | 121.87827 | 2818 ft | 179 kts | 346° |
| 2026-05-08 04:05 | 31.00752 | 121.87377 | 2546 ft | 178 kts | 345° |
| 2026-05-08 04:06 | 31.01928 | 121.86931 | 2304 ft | 175 kts | 347° |
| 2026-05-08 04:06 | 31.03091 | 121.86498 | 2060 ft | 176 kts | 344° |
| 2026-05-08 04:06 | 31.04255 | 121.86048 | 1818 ft | 175 kts | 346° |
| 2026-05-08 04:06 | 31.05403 | 121.85621 | 1580 ft | 171 kts | 343° |
| 2026-05-08 04:07 | 31.06505 | 121.85198 | 1344 ft | 161 kts | 345° |
| 2026-05-08 04:07 | 31.07542 | 121.84822 | 1130 ft | 151 kts | 347° |
| 2026-05-08 04:07 | 31.08501 | 121.84454 | 942 ft | 140 kts | 343° |
| 2026-05-08 04:07 | 31.09398 | 121.84108 | 751 ft | 133 kts | 347° |
| 2026-05-08 04:08 | 31.10264 | 121.83790 | 584 ft | 129 kts | 346° |
| 2026-05-08 04:08 | 31.11126 | 121.83461 | 397 ft | 131 kts | 346° |
| 2026-05-08 04:08 | 31.11999 | 121.83132 | 222 ft | 133 kts | 345° |
| 2026-05-08 04:08 | 31.12890 | 121.82800 | 61 ft | 135 kts | 343° |
| 2026-05-08 04:09 | 31.13754 | 121.82479 | 28 ft | 118 kts | 341° |
| 2026-05-08 04:09 | 31.14290 | 121.82271 | 29 ft | 42 kts | 342° |
| 2026-05-08 04:09 | 31.14553 | 121.82172 | 28 ft | 38 kts | 341° |
| 2026-05-08 04:09 | 31.14758 | 121.82003 | 27 ft | 35 kts | 314° |
| 2026-05-08 04:10 | 31.14900 | 121.81841 | 28 ft | 23 kts | 325° |
| 2026-05-08 04:10 | 31.14983 | 121.81758 | 28 ft | 8 kts | 272° |
| 2026-05-08 04:10 | 31.14962 | 121.81674 | 28 ft | 14 kts | 252° |
| 2026-05-08 04:10 | 31.14925 | 121.81541 | 28 ft | 20 kts | 252° |
| 2026-05-08 04:11 | 31.14877 | 121.81366 | 29 ft | 25 kts | 252° |
| 2026-05-08 04:11 | 31.14810 | 121.81255 | 29 ft | 17 kts | 190° |
| 2026-05-08 04:11 | 31.14736 | 121.81276 | 29 ft | 19 kts | 160° |
| 2026-05-08 04:11 | 31.14634 | 121.81318 | 29 ft | 23 kts | 161° |
| 2026-05-08 04:12 | 31.14473 | 121.81376 | 29 ft | 22 kts | 162° |
| 2026-05-08 04:12 | 31.14310 | 121.81439 | 29 ft | 27 kts | 162° |
| 2026-05-08 04:12 | 31.14139 | 121.81503 | 29 ft | 18 kts | 162° |
| 2026-05-08 04:12 | 31.14003 | 121.81555 | 29 ft | 23 kts | 162° |
| 2026-05-08 04:13 | 31.13836 | 121.81617 | 29 ft | 25 kts | 162° |
| 2026-05-08 04:13 | 31.13725 | 121.81610 | 29 ft | 10 kts | 230° |
| 2026-05-08 04:13 | 31.13710 | 121.81538 | 29 ft | 12 kts | 254° |
| 2026-05-08 04:13 | 31.13690 | 121.81460 | 29 ft | 0 kts | 252° |
| 2026-05-08 04:14 | 31.13684 | 121.81437 | 29 ft | 6 kts | 252° |
| 2026-05-08 04:14 | 31.13672 | 121.81393 | 29 ft | 11 kts | 251° |
| 2026-05-08 04:14 | 31.13665 | 121.81368 | 29 ft | 0 kts | 251° |